Flood From: 22-02-2018 16:00 Until: 23-02-2018 16:00 warning for: Flood Level: Yellow info button

Although rather usual in this region, locally or potentially dangerous phenomena are expected. (such as local winds, summer thunderstorms, rising streams or high waves) Be aware and pay attention to the latest weather updates, especially if you carry out activities exposed to weather or close to a stream or shoreline. 


Meteo18 Weather Cam more information Meteo18 Weather Cam


Thunder radar more information blitzortung!


Rain radar more information rain snow radar


Visit our other weather sites:

Template documentation
and downloads

And another site



Weather Underground History page Text

Daily Summary for January 27, 2017 Units:  Both    English   Metric
« Previous Day
Next Day »
Daily Weekly Monthly Yearly Custom
  High: Low: Average:
Temperature: TemperatureC °F /  -17.8 °C 0.9 °F /  -17.3 °C 5.5 °F /  -14.7 °C
Dew Point: DewpointC °F /  -17.8 °C -1.3 °F /  -18.5 °C 1.9 °F /  -16.7 °C
Humidity: Humidity % 65 % 78 %
Wind Speed: WindSpeedKMH mph /  0 km/h - 3.8 mph /  6.1 km/h
Wind Gust: WindSpeedGustKMH mph /  0 km/h - -
Wind:- - ESE
Pressure: PressurehPa in /  0 hPa 1013.4 in /  34313.7 hPa -
Precipitation: 0.0 in /  0 mm    
Historical Graphs
 
 
Tabular Data for January 27, 2017
Time Temperature Dew Point Pressure Wind Wind Speed Wind Gust Humidity Rainfall Rate (Hourly)
TemperatureC °F /  -17.8 °C DewpointC °F /  -17.8 °C PressurehPa in /  0 hPa Calm     Humidity % HourlyPrecipMM in /  0 mm
00:02 1.8 °F /  -16.8 °C -0.3 °F /  -17.9 °C 1015.5 in /  34384.8 hPa SSE 6.4 mph /  10.3 km/h 27.4 mph /  44.1 km/h 86 % 0.0 in /  0 mm
00:07 1.7 °F /  -16.8 °C -0.4 °F /  -18 °C 1015.1 in /  34371.3 hPa SE 4.8 mph /  7.7 km/h 20.9 mph /  33.6 km/h 86 % 0.0 in /  0 mm
00:17 1.3 °F /  -17.1 °C -0.6 °F /  -18.1 °C 1015.1 in /  34371.3 hPa East 3.2 mph /  5.1 km/h 20.9 mph /  33.6 km/h 87 % 0.0 in /  0 mm
00:22 1.3 °F /  -17.1 °C -0.6 °F /  -18.1 °C 1015.1 in /  34371.3 hPa SSE 6.4 mph /  10.3 km/h 14.5 mph /  23.3 km/h 87 % 0.0 in /  0 mm
00:32 1.2 °F /  -17.1 °C -0.7 °F /  -18.2 °C 1015.1 in /  34371.3 hPa Calm   19.3 mph /  31.1 km/h 87 % 0.0 in /  0 mm
00:37 1.2 °F /  -17.1 °C -0.9 °F /  -18.3 °C 1015.1 in /  34371.3 hPa ESE 3.2 mph /  5.1 km/h 19.3 mph /  31.1 km/h 86 % 0.0 in /  0 mm
00:42 1.1 °F /  -17.2 °C -1.0 °F /  -18.3 °C 1015.1 in /  34371.3 hPa SE 1.6 mph /  2.6 km/h 12.9 mph /  20.8 km/h 86 % 0.0 in /  0 mm
00:57 0.9 °F /  -17.3 °C -1.3 °F /  -18.5 °C 1014.8 in /  34361.1 hPa Calm   11.3 mph /  18.2 km/h 85 % 0.0 in /  0 mm
01:02 0.9 °F /  -17.3 °C -1.2 °F /  -18.4 °C 1014.8 in /  34361.1 hPa Calm   11.3 mph /  18.2 km/h 86 % 0.0 in /  0 mm
01:07 0.9 °F /  -17.3 °C -1.2 °F /  -18.4 °C 1014.8 in /  34361.1 hPa Calm   11.3 mph /  18.2 km/h 86 % 0.0 in /  0 mm
01:18 0.9 °F /  -17.3 °C -1.3 °F /  -18.5 °C 1014.8 in /  34361.1 hPa Calm   11.3 mph /  18.2 km/h 85 % 0.0 in /  0 mm
01:22 0.9 °F /  -17.3 °C -1.3 °F /  -18.5 °C 1014.8 in /  34361.1 hPa SSE 1.6 mph /  2.6 km/h 11.3 mph /  18.2 km/h 85 % 0.0 in /  0 mm
01:27 0.9 °F /  -17.3 °C -1.3 °F /  -18.5 °C 1014.8 in /  34361.1 hPa SE 1.6 mph /  2.6 km/h 9.7 mph /  15.6 km/h 85 % 0.0 in /  0 mm
01:32 0.9 °F /  -17.3 °C -1.3 °F /  -18.5 °C 1014.8 in /  34361.1 hPa Calm   9.7 mph /  15.6 km/h 85 % 0.0 in /  0 mm
01:37 0.9 °F /  -17.3 °C -1.2 °F /  -18.4 °C 1014.8 in /  34361.1 hPa SSE 4.8 mph /  7.7 km/h 11.3 mph /  18.2 km/h 86 % 0.0 in /  0 mm
01:42 1.1 °F /  -17.2 °C -1.0 °F /  -18.3 °C 1014.4 in /  34347.6 hPa South 6.4 mph /  10.3 km/h 11.3 mph /  18.2 km/h 86 % 0.0 in /  0 mm
01:47 1.1 °F /  -17.2 °C -1.0 °F /  -18.3 °C 1014.4 in /  34347.6 hPa SE 4.8 mph /  7.7 km/h 14.5 mph /  23.3 km/h 86 % 0.0 in /  0 mm
01:52 1.1 °F /  -17.2 °C -1.1 °F /  -18.4 °C 1014.4 in /  34347.6 hPa SE 1.6 mph /  2.6 km/h 14.5 mph /  23.3 km/h 85 % 0.0 in /  0 mm
02:02 1.2 °F /  -17.1 °C -0.9 °F /  -18.3 °C 1014.4 in /  34347.6 hPa SE 9.7 mph /  15.6 km/h 9.7 mph /  15.6 km/h 86 % 0.0 in /  0 mm
02:12 1.3 °F /  -17.1 °C -0.8 °F /  -18.2 °C 1014.4 in /  34347.6 hPa SE 4.8 mph /  7.7 km/h 11.3 mph /  18.2 km/h 86 % 0.0 in /  0 mm
02:17 1.4 °F /  -17 °C -0.7 °F /  -18.2 °C 1014.4 in /  34347.6 hPa SE 3.2 mph /  5.1 km/h 14.5 mph /  23.3 km/h 86 % 0.0 in /  0 mm
02:27 1.4 °F /  -17 °C -0.5 °F /  -18.1 °C 1014.4 in /  34347.6 hPa SE 4.8 mph /  7.7 km/h 14.5 mph /  23.3 km/h 87 % 0.0 in /  0 mm
02:32 1.4 °F /  -17 °C -0.5 °F /  -18.1 °C 1014.4 in /  34347.6 hPa ESE 1.6 mph /  2.6 km/h 14.5 mph /  23.3 km/h 87 % 0.0 in /  0 mm
02:37 1.3 °F /  -17.1 °C -0.6 °F /  -18.1 °C 1014.4 in /  34347.6 hPa ESE 6.4 mph /  10.3 km/h 11.3 mph /  18.2 km/h 87 % 0.0 in /  0 mm
02:42 1.3 °F /  -17.1 °C -0.6 °F /  -18.1 °C 1014.4 in /  34347.6 hPa SSE 1.6 mph /  2.6 km/h 11.3 mph /  18.2 km/h 87 % 0.0 in /  0 mm
02:47 1.3 °F /  -17.1 °C -0.6 °F /  -18.1 °C 1014.4 in /  34347.6 hPa Calm   9.7 mph /  15.6 km/h 87 % 0.0 in /  0 mm
02:57 1.2 °F /  -17.1 °C -0.6 °F /  -18.1 °C 1014.4 in /  34347.6 hPa SSE 1.6 mph /  2.6 km/h 6.4 mph /  10.3 km/h 88 % 0.0 in /  0 mm
03:02 1.2 °F /  -17.1 °C -0.6 °F /  -18.1 °C 1014.1 in /  34337.4 hPa Calm   6.4 mph /  10.3 km/h 88 % 0.0 in /  0 mm
03:07 1.2 °F /  -17.1 °C -0.6 °F /  -18.1 °C 1014.1 in /  34337.4 hPa Calm   6.4 mph /  10.3 km/h 88 % 0.0 in /  0 mm
03:17 1.1 °F /  -17.2 °C -0.7 °F /  -18.2 °C 1014.1 in /  34337.4 hPa SE 3.2 mph /  5.1 km/h 4.8 mph /  7.7 km/h 88 % 0.0 in /  0 mm
03:22 1.1 °F /  -17.2 °C -0.7 °F /  -18.2 °C 1014.1 in /  34337.4 hPa SE 1.6 mph /  2.6 km/h 4.8 mph /  7.7 km/h 88 % 0.0 in /  0 mm
03:27 1.1 °F /  -17.2 °C -0.5 °F /  -18.1 °C 1013.8 in /  34327.3 hPa ESE 1.6 mph /  2.6 km/h 4.8 mph /  7.7 km/h 89 % 0.0 in /  0 mm
03:32 1.2 °F /  -17.1 °C -0.6 °F /  -18.1 °C 1013.8 in /  34327.3 hPa Calm   4.8 mph /  7.7 km/h 88 % 0.0 in /  0 mm
03:47 1.2 °F /  -17.1 °C -0.6 °F /  -18.1 °C 1013.8 in /  34327.3 hPa Calm   8.0 mph /  12.9 km/h 88 % 0.0 in /  0 mm
03:52 1.2 °F /  -17.1 °C -0.4 °F /  -18 °C 1013.8 in /  34327.3 hPa SW 1.6 mph /  2.6 km/h 8.0 mph /  12.9 km/h 89 % 0.0 in /  0 mm
03:57 1.2 °F /  -17.1 °C -0.4 °F /  -18 °C 1013.8 in /  34327.3 hPa Calm   3.2 mph /  5.1 km/h 89 % 0.0 in /  0 mm
04:02 1.1 °F /  -17.2 °C -0.5 °F /  -18.1 °C 1013.8 in /  34327.3 hPa Calm   3.2 mph /  5.1 km/h 89 % 0.0 in /  0 mm
04:22 1.1 °F /  -17.2 °C -0.5 °F /  -18.1 °C 1013.4 in /  34313.7 hPa Calm   3.2 mph /  5.1 km/h 89 % 0.0 in /  0 mm
04:27 1.2 °F /  -17.1 °C -0.4 °F /  -18 °C 1013.4 in /  34313.7 hPa Calm   3.2 mph /  5.1 km/h 89 % 0.0 in /  0 mm
04:32 1.2 °F /  -17.1 °C -0.4 °F /  -18 °C 1013.8 in /  34327.3 hPa Calm   3.2 mph /  5.1 km/h 89 % 0.0 in /  0 mm
04:37 1.2 °F /  -17.1 °C -0.4 °F /  -18 °C 1013.8 in /  34327.3 hPa Calm   1.6 mph /  2.6 km/h 89 % 0.0 in /  0 mm
04:42 1.3 °F /  -17.1 °C -0.2 °F /  -17.9 °C 1013.8 in /  34327.3 hPa Calm   1.6 mph /  2.6 km/h 90 % 0.0 in /  0 mm
04:52 1.3 °F /  -17.1 °C -0.3 °F /  -17.9 °C 1013.8 in /  34327.3 hPa Calm   1.6 mph /  2.6 km/h 89 % 0.0 in /  0 mm
04:57 1.4 °F /  -17 °C -0.2 °F /  -17.9 °C 1013.8 in /  34327.3 hPa Calm   1.6 mph /  2.6 km/h 89 % 0.0 in /  0 mm
05:02 1.4 °F /  -17 °C -0.2 °F /  -17.9 °C 1013.8 in /  34327.3 hPa Calm   1.6 mph /  2.6 km/h 89 % 0.0 in /  0 mm
05:12 1.6 °F /  -16.9 °C 0.0 °F /  -17.8 °C 1013.8 in /  34327.3 hPa Calm     89 % 0.0 in /  0 mm
05:17 1.6 °F /  -16.9 °C 0.0 °F /  -17.8 °C 1013.8 in /  34327.3 hPa Calm     89 % 0.0 in /  0 mm
05:22 1.6 °F /  -16.9 °C 0.0 °F /  -17.8 °C 1013.8 in /  34327.3 hPa Calm   3.2 mph /  5.1 km/h 89 % 0.0 in /  0 mm
05:27 1.5 °F /  -16.9 °C -0.3 °F /  -17.9 °C 1013.8 in /  34327.3 hPa Calm   3.2 mph /  5.1 km/h 88 % 0.0 in /  0 mm
05:32 1.2 °F /  -17.1 °C -0.4 °F /  -18 °C 1013.8 in /  34327.3 hPa Calm   1.6 mph /  2.6 km/h 89 % 0.0 in /  0 mm
05:42 1.4 °F /  -17 °C -0.2 °F /  -17.9 °C 1013.4 in /  34313.7 hPa Calm   1.6 mph /  2.6 km/h 89 % 0.0 in /  0 mm
05:47 1.3 °F /  -17.1 °C -0.3 °F /  -17.9 °C 1013.4 in /  34313.7 hPa Calm   1.6 mph /  2.6 km/h 89 % 0.0 in /  0 mm
05:52 1.2 °F /  -17.1 °C -0.4 °F /  -18 °C 1013.8 in /  34327.3 hPa Calm   1.6 mph /  2.6 km/h 89 % 0.0 in /  0 mm
06:02 0.9 °F /  -17.3 °C -0.6 °F /  -18.1 °C 1013.8 in /  34327.3 hPa Calm   1.6 mph /  2.6 km/h 90 % 0.0 in /  0 mm
06:07 0.9 °F /  -17.3 °C -0.4 °F /  -18 °C 1013.8 in /  34327.3 hPa SSE 3.2 mph /  5.1 km/h 3.2 mph /  5.1 km/h 91 % 0.0 in /  0 mm
06:12 1.2 °F /  -17.1 °C -0.1 °F /  -17.8 °C 1013.8 in /  34327.3 hPa Calm   4.8 mph /  7.7 km/h 91 % 0.0 in /  0 mm
06:27 1.4 °F /  -17 °C -0.1 °F /  -17.8 °C 1013.8 in /  34327.3 hPa SE 1.6 mph /  2.6 km/h 4.8 mph /  7.7 km/h 90 % 0.0 in /  0 mm
06:32 1.7 °F /  -16.8 °C 0.2 °F /  -17.7 °C 1013.8 in /  34327.3 hPa Calm   4.8 mph /  7.7 km/h 90 % 0.0 in /  0 mm
06:42 1.9 °F /  -16.7 °C 0.1 °F /  -17.7 °C 1013.8 in /  34327.3 hPa ESE 1.6 mph /  2.6 km/h 4.8 mph /  7.7 km/h 88 % 0.0 in /  0 mm
06:52 1.9 °F /  -16.7 °C 0.1 °F /  -17.7 °C 1013.8 in /  34327.3 hPa Calm   3.2 mph /  5.1 km/h 88 % 0.0 in /  0 mm
07:02 1.9 °F /  -16.7 °C 0.3 °F /  -17.6 °C 1013.8 in /  34327.3 hPa Calm   3.2 mph /  5.1 km/h 89 % 0.0 in /  0 mm
07:12 1.8 °F /  -16.8 °C -0.1 °F /  -17.8 °C 1013.8 in /  34327.3 hPa SSW 1.6 mph /  2.6 km/h 8.0 mph /  12.9 km/h 87 % 0.0 in /  0 mm
07:17 1.9 °F /  -16.7 °C 0.4 °F /  -17.6 °C 1013.8 in /  34327.3 hPa SE 3.2 mph /  5.1 km/h 8.0 mph /  12.9 km/h 90 % 0.0 in /  0 mm
07:22 2.2 °F /  -16.6 °C 0.4 °F /  -17.6 °C 1013.8 in /  34327.3 hPa Calm   8.0 mph /  12.9 km/h 88 % 0.0 in /  0 mm
07:27 2.2 °F /  -16.6 °C 0.4 °F /  -17.6 °C 1013.8 in /  34327.3 hPa Calm   8.0 mph /  12.9 km/h 88 % 0.0 in /  0 mm
07:32 1.9 °F /  -16.7 °C 0.0 °F /  -17.8 °C 1013.8 in /  34327.3 hPa Calm   8.0 mph /  12.9 km/h 87 % 0.0 in /  0 mm
07:37 1.8 °F /  -16.8 °C 0.2 °F /  -17.7 °C 1013.8 in /  34327.3 hPa SSW 3.2 mph /  5.1 km/h 3.2 mph /  5.1 km/h 89 % 0.0 in /  0 mm
07:42 2.0 °F /  -16.7 °C 0.4 °F /  -17.6 °C 1013.8 in /  34327.3 hPa Calm   3.2 mph /  5.1 km/h 89 % 0.0 in /  0 mm
07:47 2.1 °F /  -16.6 °C 0.5 °F /  -17.5 °C 1013.8 in /  34327.3 hPa Calm   4.8 mph /  7.7 km/h 89 % 0.0 in /  0 mm
07:52 2.1 °F /  -16.6 °C 0.3 °F /  -17.6 °C 1013.8 in /  34327.3 hPa Calm   4.8 mph /  7.7 km/h 88 % 0.0 in /  0 mm
07:57 2.2 °F /  -16.6 °C 0.6 °F /  -17.4 °C 1014.1 in /  34337.4 hPa WSW 1.6 mph /  2.6 km/h 3.2 mph /  5.1 km/h 89 % 0.0 in /  0 mm
08:07 2.4 °F /  -16.4 °C 0.8 °F /  -17.3 °C 1013.8 in /  34327.3 hPa Calm   1.6 mph /  2.6 km/h 89 % 0.0 in /  0 mm
08:12 2.5 °F /  -16.4 °C 0.7 °F /  -17.4 °C 1014.1 in /  34337.4 hPa ESE 1.6 mph /  2.6 km/h 1.6 mph /  2.6 km/h 88 % 0.0 in /  0 mm
08:17 2.8 °F /  -16.2 °C 1.0 °F /  -17.2 °C 1014.1 in /  34337.4 hPa Calm   3.2 mph /  5.1 km/h 88 % 0.0 in /  0 mm
08:22 2.9 °F /  -16.2 °C 1.0 °F /  -17.2 °C 1014.1 in /  34337.4 hPa Calm   3.2 mph /  5.1 km/h 87 % 0.0 in /  0 mm
08:27 2.9 °F /  -16.2 °C 1.0 °F /  -17.2 °C 1014.4 in /  34347.6 hPa Calm   3.2 mph /  5.1 km/h 87 % 0.0 in /  0 mm
08:32 2.9 °F /  -16.2 °C 1.0 °F /  -17.2 °C 1014.4 in /  34347.6 hPa SE 1.6 mph /  2.6 km/h 3.2 mph /  5.1 km/h 87 % 0.0 in /  0 mm
08:42 3.1 °F /  -16.1 °C 1.0 °F /  -17.2 °C 1014.4 in /  34347.6 hPa Calm   4.8 mph /  7.7 km/h 86 % 0.0 in /  0 mm
08:47 3.3 °F /  -15.9 °C 1.2 °F /  -17.1 °C 1014.4 in /  34347.6 hPa ESE 3.2 mph /  5.1 km/h 4.8 mph /  7.7 km/h 86 % 0.0 in /  0 mm
08:52 3.4 °F /  -15.9 °C 1.3 °F /  -17.1 °C 1014.4 in /  34347.6 hPa Calm   4.8 mph /  7.7 km/h 86 % 0.0 in /  0 mm
09:02 3.6 °F /  -15.8 °C 1.3 °F /  -17.1 °C 1014.4 in /  34347.6 hPa Calm   3.2 mph /  5.1 km/h 85 % 0.0 in /  0 mm
09:12 3.8 °F /  -15.7 °C 1.5 °F /  -16.9 °C 1014.4 in /  34347.6 hPa Calm   4.8 mph /  7.7 km/h 85 % 0.0 in /  0 mm
09:17 3.9 °F /  -15.6 °C 1.6 °F /  -16.9 °C 1014.4 in /  34347.6 hPa Calm   1.6 mph /  2.6 km/h 85 % 0.0 in /  0 mm
09:22 4.0 °F /  -15.6 °C 1.7 °F /  -16.8 °C 1014.4 in /  34347.6 hPa Calm   1.6 mph /  2.6 km/h 85 % 0.0 in /  0 mm
09:32 4.2 °F /  -15.4 °C 1.9 °F /  -16.7 °C 1014.4 in /  34347.6 hPa Calm   1.6 mph /  2.6 km/h 85 % 0.0 in /  0 mm
09:42 4.6 °F /  -15.2 °C 2.1 °F /  -16.6 °C 1014.4 in /  34347.6 hPa Calm   3.2 mph /  5.1 km/h 84 % 0.0 in /  0 mm
09:52 4.7 °F /  -15.2 °C 2.1 °F /  -16.6 °C 1014.4 in /  34347.6 hPa Calm   4.8 mph /  7.7 km/h 83 % 0.0 in /  0 mm
10:02 4.9 °F /  -15.1 °C 2.3 °F /  -16.5 °C 1014.4 in /  34347.6 hPa Calm   4.8 mph /  7.7 km/h 83 % 0.0 in /  0 mm
10:12 5.1 °F /  -14.9 °C 2.5 °F /  -16.4 °C 1014.4 in /  34347.6 hPa Calm   3.2 mph /  5.1 km/h 83 % 0.0 in /  0 mm
10:22 5.3 °F /  -14.8 °C 2.6 °F /  -16.3 °C 1014.4 in /  34347.6 hPa SE 4.8 mph /  7.7 km/h 6.4 mph /  10.3 km/h 83 % 0.0 in /  0 mm
10:32 5.8 °F /  -14.6 °C 3.0 °F /  -16.1 °C 1014.4 in /  34347.6 hPa ESE 1.6 mph /  2.6 km/h 9.7 mph /  15.6 km/h 82 % 0.0 in /  0 mm
10:37 5.9 °F /  -14.5 °C 3.1 °F /  -16.1 °C 1014.4 in /  34347.6 hPa SE 4.8 mph /  7.7 km/h 11.3 mph /  18.2 km/h 82 % 0.0 in /  0 mm
10:42 6.3 °F /  -14.3 °C 3.1 °F /  -16.1 °C 1014.4 in /  34347.6 hPa SE 4.8 mph /  7.7 km/h 11.3 mph /  18.2 km/h 80 % 0.0 in /  0 mm
10:47 6.4 °F /  -14.2 °C 3.2 °F /  -16 °C 1014.4 in /  34347.6 hPa ESE 9.7 mph /  15.6 km/h 17.7 mph /  28.5 km/h 80 % 0.0 in /  0 mm
10:52 6.6 °F /  -14.1 °C 3.4 °F /  -15.9 °C 1014.4 in /  34347.6 hPa East 4.8 mph /  7.7 km/h 17.7 mph /  28.5 km/h 80 % 0.0 in /  0 mm
11:02 6.9 °F /  -13.9 °C 3.5 °F /  -15.8 °C 1014.4 in /  34347.6 hPa SE 14.5 mph /  23.3 km/h 16.1 mph /  25.9 km/h 79 % 0.0 in /  0 mm
11:12 7.2 °F /  -13.8 °C 3.6 °F /  -15.8 °C 1014.4 in /  34347.6 hPa SE 9.7 mph /  15.6 km/h 19.3 mph /  31.1 km/h 78 % 0.0 in /  0 mm
11:17 7.3 °F /  -13.7 °C 3.5 °F /  -15.8 °C 1014.4 in /  34347.6 hPa SSE 9.7 mph /  15.6 km/h 25.7 mph /  41.4 km/h 77 % 0.0 in /  0 mm
11:37 7.4 °F /  -13.7 °C 3.8 °F /  -15.7 °C 1014.4 in /  34347.6 hPa SE 9.7 mph /  15.6 km/h 19.3 mph /  31.1 km/h 78 % 0.0 in /  0 mm
11:42 7.4 °F /  -13.7 °C 3.8 °F /  -15.7 °C 1014.4 in /  34347.6 hPa SE 6.4 mph /  10.3 km/h 19.3 mph /  31.1 km/h 78 % 0.0 in /  0 mm
11:48 7.4 °F /  -13.7 °C 3.8 °F /  -15.7 °C 1014.4 in /  34347.6 hPa SE 8.0 mph /  12.9 km/h 16.1 mph /  25.9 km/h 78 % 0.0 in /  0 mm
11:57 7.4 °F /  -13.7 °C 3.8 °F /  -15.7 °C 1014.4 in /  34347.6 hPa SE 12.9 mph /  20.8 km/h 19.3 mph /  31.1 km/h 78 % 0.0 in /  0 mm
12:07 7.6 °F /  -13.6 °C 4.0 °F /  -15.6 °C 1014.4 in /  34347.6 hPa ESE 8.0 mph /  12.9 km/h 17.7 mph /  28.5 km/h 78 % 0.0 in /  0 mm
12:12 7.7 °F /  -13.5 °C 4.1 °F /  -15.5 °C 1014.4 in /  34347.6 hPa SE 3.2 mph /  5.1 km/h 17.7 mph /  28.5 km/h 78 % 0.0 in /  0 mm
12:22 7.9 °F /  -13.4 °C 4.1 °F /  -15.5 °C 1014.4 in /  34347.6 hPa SE 8.0 mph /  12.9 km/h 17.7 mph /  28.5 km/h 77 % 0.0 in /  0 mm
12:32 8.3 °F /  -13.2 °C 4.1 °F /  -15.5 °C 1014.1 in /  34337.4 hPa SE 14.5 mph /  23.3 km/h 17.7 mph /  28.5 km/h 75 % 0.0 in /  0 mm
12:42 8.7 °F /  -12.9 °C 4.1 °F /  -15.5 °C 1014.1 in /  34337.4 hPa ESE 8.0 mph /  12.9 km/h 24.1 mph /  38.8 km/h 73 % 0.0 in /  0 mm
12:52 8.9 °F /  -12.8 °C 4.3 °F /  -15.4 °C 1014.4 in /  34347.6 hPa SE 12.9 mph /  20.8 km/h 22.5 mph /  36.2 km/h 73 % 0.0 in /  0 mm
12:57 8.9 °F /  -12.8 °C 4.1 °F /  -15.5 °C 1014.1 in /  34337.4 hPa SE 6.4 mph /  10.3 km/h 22.5 mph /  36.2 km/h 72 % 0.0 in /  0 mm
13:02 9.1 °F /  -12.7 °C 4.1 °F /  -15.5 °C 1014.1 in /  34337.4 hPa ESE 6.4 mph /  10.3 km/h 24.1 mph /  38.8 km/h 71 % 0.0 in /  0 mm
13:12 9.1 °F /  -12.7 °C 4.1 °F /  -15.5 °C 1014.1 in /  34337.4 hPa SE 6.4 mph /  10.3 km/h 24.1 mph /  38.8 km/h 71 % 0.0 in /  0 mm
13:17 9.2 °F /  -12.7 °C 4.2 °F /  -15.4 °C 1014.1 in /  34337.4 hPa ESE 8.0 mph /  12.9 km/h 24.1 mph /  38.8 km/h 71 % 0.0 in /  0 mm
13:22 9.2 °F /  -12.7 °C 4.4 °F /  -15.3 °C 1014.1 in /  34337.4 hPa SE 11.3 mph /  18.2 km/h 24.1 mph /  38.8 km/h 72 % 0.0 in /  0 mm
13:27 9.2 °F /  -12.7 °C 4.2 °F /  -15.4 °C 1014.1 in /  34337.4 hPa SE 12.9 mph /  20.8 km/h 24.1 mph /  38.8 km/h 71 % 0.0 in /  0 mm
13:32 9.3 °F /  -12.6 °C 4.1 °F /  -15.5 °C 1014.1 in /  34337.4 hPa SSE 16.1 mph /  25.9 km/h 22.5 mph /  36.2 km/h 70 % 0.0 in /  0 mm
13:37 9.3 °F /  -12.6 °C 4.1 °F /  -15.5 °C 1014.1 in /  34337.4 hPa SE 8.0 mph /  12.9 km/h 22.5 mph /  36.2 km/h 70 % 0.0 in /  0 mm
13:47 9.4 °F /  -12.6 °C 4.4 °F /  -15.3 °C 1014.1 in /  34337.4 hPa ESE 20.9 mph /  33.6 km/h 20.9 mph /  33.6 km/h 71 % 0.0 in /  0 mm
13:57 9.4 °F /  -12.6 °C 4.4 °F /  -15.3 °C 1013.8 in /  34327.3 hPa SE 3.2 mph /  5.1 km/h 20.9 mph /  33.6 km/h 71 % 0.0 in /  0 mm
14:02 9.4 °F /  -12.6 °C 4.2 °F /  -15.4 °C 1014.1 in /  34337.4 hPa SE 6.4 mph /  10.3 km/h 20.9 mph /  33.6 km/h 70 % 0.0 in /  0 mm
14:07 9.4 °F /  -12.6 °C 4.2 °F /  -15.4 °C 1013.8 in /  34327.3 hPa SE 6.4 mph /  10.3 km/h 16.1 mph /  25.9 km/h 70 % 0.0 in /  0 mm
14:12 9.4 °F /  -12.6 °C 4.2 °F /  -15.4 °C 1013.8 in /  34327.3 hPa ESE 11.3 mph /  18.2 km/h 16.1 mph /  25.9 km/h 70 % 0.0 in /  0 mm
14:17 9.4 °F /  -12.6 °C 4.2 °F /  -15.4 °C 1013.8 in /  34327.3 hPa ESE 8.0 mph /  12.9 km/h 16.1 mph /  25.9 km/h 70 % 0.0 in /  0 mm
14:22 9.4 °F /  -12.6 °C 4.2 °F /  -15.4 °C 1013.8 in /  34327.3 hPa SE 4.8 mph /  7.7 km/h 14.5 mph /  23.3 km/h 70 % 0.0 in /  0 mm
14:27 9.5 °F /  -12.5 °C 4.3 °F /  -15.4 °C 1013.8 in /  34327.3 hPa SE 8.0 mph /  12.9 km/h 14.5 mph /  23.3 km/h 70 % 0.0 in /  0 mm
14:37 9.6 °F /  -12.4 °C 4.2 °F /  -15.4 °C 1013.8 in /  34327.3 hPa SE 9.7 mph /  15.6 km/h 16.1 mph /  25.9 km/h 69 % 0.0 in /  0 mm
14:42 9.7 °F /  -12.4 °C 4.3 °F /  -15.4 °C 1013.8 in /  34327.3 hPa SSE 6.4 mph /  10.3 km/h 16.1 mph /  25.9 km/h 69 % 0.0 in /  0 mm
14:52 9.9 °F /  -12.3 °C 4.1 °F /  -15.5 °C 1013.8 in /  34327.3 hPa SSE 8.0 mph /  12.9 km/h 19.3 mph /  31.1 km/h 67 % 0.0 in /  0 mm
15:02 10.1 °F /  -12.2 °C 4.2 °F /  -15.4 °C 1013.4 in /  34313.7 hPa SE 9.7 mph /  15.6 km/h 19.3 mph /  31.1 km/h 67 % 0.0 in /  0 mm
15:12 10.2 °F /  -12.1 °C 4.1 °F /  -15.5 °C 1013.4 in /  34313.7 hPa SE 4.8 mph /  7.7 km/h 19.3 mph /  31.1 km/h 66 % 0.0 in /  0 mm
15:17 10.1 °F /  -12.2 °C 4.0 °F /  -15.6 °C 1013.4 in /  34313.7 hPa SE 6.4 mph /  10.3 km/h 22.5 mph /  36.2 km/h 66 % 0.0 in /  0 mm
15:22 10.1 °F /  -12.2 °C 4.0 °F /  -15.6 °C 1013.4 in /  34313.7 hPa SE 9.7 mph /  15.6 km/h 22.5 mph /  36.2 km/h 66 % 0.0 in /  0 mm
15:27 10.1 °F /  -12.2 °C 4.0 °F /  -15.6 °C 1013.8 in /  34327.3 hPa ESE 9.7 mph /  15.6 km/h 25.7 mph /  41.4 km/h 66 % 0.0 in /  0 mm
15:32 10.2 °F /  -12.1 °C 3.9 °F /  -15.6 °C 1013.8 in /  34327.3 hPa SE 9.7 mph /  15.6 km/h 25.7 mph /  41.4 km/h 65 % 0.0 in /  0 mm
15:42 10.2 °F /  -12.1 °C 3.9 °F /  -15.6 °C 1013.8 in /  34327.3 hPa ESE 14.5 mph /  23.3 km/h 24.1 mph /  38.8 km/h 65 % 0.0 in /  0 mm
15:47 10.1 °F /  -12.2 °C 4.0 °F /  -15.6 °C 1013.8 in /  34327.3 hPa ESE 8.0 mph /  12.9 km/h 24.1 mph /  38.8 km/h 66 % 0.0 in /  0 mm
15:52 9.9 °F /  -12.3 °C 3.8 °F /  -15.7 °C 1013.8 in /  34327.3 hPa SE 11.3 mph /  18.2 km/h 24.1 mph /  38.8 km/h 66 % 0.0 in /  0 mm
15:57 9.9 °F /  -12.3 °C 4.1 °F /  -15.5 °C 1013.8 in /  34327.3 hPa ESE 8.0 mph /  12.9 km/h 24.1 mph /  38.8 km/h 67 % 0.0 in /  0 mm
16:02 9.8 °F /  -12.3 °C 4.0 °F /  -15.6 °C 1013.8 in /  34327.3 hPa ESE 9.7 mph /  15.6 km/h 17.7 mph /  28.5 km/h 67 % 0.0 in /  0 mm
16:12 9.6 °F /  -12.4 °C 4.0 °F /  -15.6 °C 1013.8 in /  34327.3 hPa East 4.8 mph /  7.7 km/h 17.7 mph /  28.5 km/h 68 % 0.0 in /  0 mm
16:17 9.3 °F /  -12.6 °C 3.9 °F /  -15.6 °C 1013.8 in /  34327.3 hPa ESE 4.8 mph /  7.7 km/h 16.1 mph /  25.9 km/h 69 % 0.0 in /  0 mm
16:22 9.2 °F /  -12.7 °C 3.8 °F /  -15.7 °C 1013.8 in /  34327.3 hPa SSE 1.6 mph /  2.6 km/h 14.5 mph /  23.3 km/h 69 % 0.0 in /  0 mm
16:27 9.1 °F /  -12.7 °C 3.7 °F /  -15.7 °C 1013.8 in /  34327.3 hPa East 3.2 mph /  5.1 km/h 12.9 mph /  20.8 km/h 69 % 0.0 in /  0 mm
16:32 9.0 °F /  -12.8 °C 3.6 °F /  -15.8 °C 1014.1 in /  34337.4 hPa East 4.8 mph /  7.7 km/h 11.3 mph /  18.2 km/h 69 % 0.0 in /  0 mm
16:37 8.9 °F /  -12.8 °C 3.7 °F /  -15.7 °C 1014.1 in /  34337.4 hPa East 3.2 mph /  5.1 km/h 11.3 mph /  18.2 km/h 70 % 0.0 in /  0 mm
16:42 8.8 °F /  -12.9 °C 3.6 °F /  -15.8 °C 1014.1 in /  34337.4 hPa ESE 1.6 mph /  2.6 km/h 11.3 mph /  18.2 km/h 70 % 0.0 in /  0 mm
16:47 8.7 °F /  -12.9 °C 3.5 °F /  -15.8 °C 1014.1 in /  34337.4 hPa East 4.8 mph /  7.7 km/h 9.7 mph /  15.6 km/h 70 % 0.0 in /  0 mm
16:57 8.6 °F /  -13 °C 3.4 °F /  -15.9 °C 1014.1 in /  34337.4 hPa ESE 3.2 mph /  5.1 km/h 9.7 mph /  15.6 km/h 70 % 0.0 in /  0 mm
17:02 8.5 °F /  -13.1 °C 3.3 °F /  -15.9 °C 1014.1 in /  34337.4 hPa ESE 6.4 mph /  10.3 km/h 11.3 mph /  18.2 km/h 70 % 0.0 in /  0 mm
17:12 8.4 °F /  -13.1 °C 3.4 °F /  -15.9 °C 1013.8 in /  34327.3 hPa ESE 3.2 mph /  5.1 km/h 11.3 mph /  18.2 km/h 71 % 0.0 in /  0 mm
17:17 8.4 °F /  -13.1 °C 3.2 °F /  -16 °C 1013.8 in /  34327.3 hPa SE 8.0 mph /  12.9 km/h 9.7 mph /  15.6 km/h 70 % 0.0 in /  0 mm
17:22 8.4 °F /  -13.1 °C 3.2 °F /  -16 °C 1013.8 in /  34327.3 hPa ESE 3.2 mph /  5.1 km/h 11.3 mph /  18.2 km/h 70 % 0.0 in /  0 mm
17:27 8.2 °F /  -13.2 °C 3.3 °F /  -15.9 °C 1014.1 in /  34337.4 hPa SE 3.2 mph /  5.1 km/h 16.1 mph /  25.9 km/h 71 % 0.0 in /  0 mm
17:32 8.0 °F /  -13.3 °C 3.3 °F /  -15.9 °C 1013.8 in /  34327.3 hPa East 4.8 mph /  7.7 km/h 16.1 mph /  25.9 km/h 72 % 0.0 in /  0 mm
17:37 7.9 °F /  -13.4 °C 3.2 °F /  -16 °C 1013.8 in /  34327.3 hPa East 6.4 mph /  10.3 km/h 16.1 mph /  25.9 km/h 72 % 0.0 in /  0 mm
17:42 7.9 °F /  -13.4 °C 3.2 °F /  -16 °C 1013.8 in /  34327.3 hPa ESE 4.8 mph /  7.7 km/h 9.7 mph /  15.6 km/h 72 % 0.0 in /  0 mm
17:47 7.8 °F /  -13.4 °C 3.1 °F /  -16.1 °C 1013.8 in /  34327.3 hPa SE 4.8 mph /  7.7 km/h 11.3 mph /  18.2 km/h 72 % 0.0 in /  0 mm
17:52 7.8 °F /  -13.4 °C 3.1 °F /  -16.1 °C 1014.1 in /  34337.4 hPa SE 4.8 mph /  7.7 km/h 11.3 mph /  18.2 km/h 72 % 0.0 in /  0 mm
17:57 7.8 °F /  -13.4 °C 3.1 °F /  -16.1 °C 1014.1 in /  34337.4 hPa ESE 12.9 mph /  20.8 km/h 12.9 mph /  20.8 km/h 72 % 0.0 in /  0 mm
18:02 7.8 °F /  -13.4 °C 3.1 °F /  -16.1 °C 1014.1 in /  34337.4 hPa SE 4.8 mph /  7.7 km/h 12.9 mph /  20.8 km/h 72 % 0.0 in /  0 mm
18:12 7.6 °F /  -13.6 °C 2.9 °F /  -16.2 °C 1014.1 in /  34337.4 hPa SE 4.8 mph /  7.7 km/h 12.9 mph /  20.8 km/h 72 % 0.0 in /  0 mm
18:17 7.7 °F /  -13.5 °C 3.0 °F /  -16.1 °C 1014.1 in /  34337.4 hPa East 8.0 mph /  12.9 km/h 12.9 mph /  20.8 km/h 72 % 0.0 in /  0 mm
18:22 7.6 °F /  -13.6 °C 2.9 °F /  -16.2 °C 1014.1 in /  34337.4 hPa SE 6.4 mph /  10.3 km/h 16.1 mph /  25.9 km/h 72 % 0.0 in /  0 mm
18:32 7.5 °F /  -13.6 °C 3.0 °F /  -16.1 °C 1014.4 in /  34347.6 hPa ESE 3.2 mph /  5.1 km/h 16.1 mph /  25.9 km/h 73 % 0.0 in /  0 mm
18:42 7.3 °F /  -13.7 °C 2.8 °F /  -16.2 °C 1014.4 in /  34347.6 hPa SE 4.8 mph /  7.7 km/h 16.1 mph /  25.9 km/h 73 % 0.0 in /  0 mm
18:47 7.2 °F /  -13.8 °C 2.7 °F /  -16.3 °C 1014.4 in /  34347.6 hPa ESE 4.8 mph /  7.7 km/h 16.1 mph /  25.9 km/h 73 % 0.0 in /  0 mm
18:57 7.0 °F /  -13.9 °C 2.9 °F /  -16.2 °C 1014.4 in /  34347.6 hPa ESE 6.4 mph /  10.3 km/h 9.7 mph /  15.6 km/h 75 % 0.0 in /  0 mm
19:02 7.1 °F /  -13.8 °C 2.8 °F /  -16.2 °C 1014.4 in /  34347.6 hPa East 3.2 mph /  5.1 km/h 9.7 mph /  15.6 km/h 74 % 0.0 in /  0 mm
19:12 7.1 °F /  -13.8 °C 3.0 °F /  -16.1 °C 1014.4 in /  34347.6 hPa East 3.2 mph /  5.1 km/h 11.3 mph /  18.2 km/h 75 % 0.0 in /  0 mm
19:17 7.1 °F /  -13.8 °C 2.8 °F /  -16.2 °C 1014.4 in /  34347.6 hPa East 4.8 mph /  7.7 km/h 11.3 mph /  18.2 km/h 74 % 0.0 in /  0 mm
19:22 7.2 °F /  -13.8 °C 2.9 °F /  -16.2 °C 1014.8 in /  34361.1 hPa ESE 3.2 mph /  5.1 km/h 8.0 mph /  12.9 km/h 74 % 0.0 in /  0 mm
19:27 7.2 °F /  -13.8 °C 2.9 °F /  -16.2 °C 1014.4 in /  34347.6 hPa ESE 1.6 mph /  2.6 km/h 8.0 mph /  12.9 km/h 74 % 0.0 in /  0 mm
19:32 7.2 °F /  -13.8 °C 2.9 °F /  -16.2 °C 1014.8 in /  34361.1 hPa ESE 1.6 mph /  2.6 km/h 8.0 mph /  12.9 km/h 74 % 0.0 in /  0 mm
19:37 7.3 °F /  -13.7 °C 3.0 °F /  -16.1 °C 1014.4 in /  34347.6 hPa ESE 3.2 mph /  5.1 km/h 4.8 mph /  7.7 km/h 74 % 0.0 in /  0 mm
19:42 7.4 °F /  -13.7 °C 2.9 °F /  -16.2 °C 1014.4 in /  34347.6 hPa East 1.6 mph /  2.6 km/h 4.8 mph /  7.7 km/h 73 % 0.0 in /  0 mm
19:47 7.7 °F /  -13.5 °C 3.2 °F /  -16 °C 1014.4 in /  34347.6 hPa ESE 4.8 mph /  7.7 km/h 6.4 mph /  10.3 km/h 73 % 0.0 in /  0 mm
19:52 7.9 °F /  -13.4 °C 3.2 °F /  -16 °C 1014.4 in /  34347.6 hPa East 3.2 mph /  5.1 km/h 6.4 mph /  10.3 km/h 72 % 0.0 in /  0 mm
19:57 7.8 °F /  -13.4 °C 3.1 °F /  -16.1 °C 1014.4 in /  34347.6 hPa ESE 1.6 mph /  2.6 km/h 9.7 mph /  15.6 km/h 72 % 0.0 in /  0 mm
20:02 7.6 °F /  -13.6 °C 2.9 °F /  -16.2 °C 1014.4 in /  34347.6 hPa Calm   9.7 mph /  15.6 km/h 72 % 0.0 in /  0 mm
20:12 7.6 °F /  -13.6 °C 3.1 °F /  -16.1 °C 1014.8 in /  34361.1 hPa East 1.6 mph /  2.6 km/h 9.7 mph /  15.6 km/h 73 % 0.0 in /  0 mm
20:17 7.7 °F /  -13.5 °C 3.0 °F /  -16.1 °C 1014.8 in /  34361.1 hPa ESE 1.6 mph /  2.6 km/h 6.4 mph /  10.3 km/h 72 % 0.0 in /  0 mm
20:22 7.8 °F /  -13.4 °C 2.9 °F /  -16.2 °C 1014.8 in /  34361.1 hPa East 8.0 mph /  12.9 km/h 8.0 mph /  12.9 km/h 71 % 0.0 in /  0 mm
20:27 8.0 °F /  -13.3 °C 2.9 °F /  -16.2 °C 1014.8 in /  34361.1 hPa SE 4.8 mph /  7.7 km/h 6.4 mph /  10.3 km/h 70 % 0.0 in /  0 mm
20:32 8.0 °F /  -13.3 °C 2.9 °F /  -16.2 °C 1014.8 in /  34361.1 hPa Calm   9.7 mph /  15.6 km/h 70 % 0.0 in /  0 mm
20:37 7.8 °F /  -13.4 °C 2.7 °F /  -16.3 °C 1014.8 in /  34361.1 hPa Calm   9.7 mph /  15.6 km/h 70 % 0.0 in /  0 mm
20:42 7.5 °F /  -13.6 °C 2.6 °F /  -16.3 °C 1014.8 in /  34361.1 hPa ENE 1.6 mph /  2.6 km/h 9.7 mph /  15.6 km/h 71 % 0.0 in /  0 mm
20:47 7.3 °F /  -13.7 °C 2.6 °F /  -16.3 °C 1014.4 in /  34347.6 hPa ENE 4.8 mph /  7.7 km/h 9.7 mph /  15.6 km/h 72 % 0.0 in /  0 mm
20:52 7.4 °F /  -13.7 °C 2.7 °F /  -16.3 °C 1014.4 in /  34347.6 hPa East 1.6 mph /  2.6 km/h 6.4 mph /  10.3 km/h 72 % 0.0 in /  0 mm
20:57 7.3 °F /  -13.7 °C 2.6 °F /  -16.3 °C 1014.4 in /  34347.6 hPa East 3.2 mph /  5.1 km/h 6.4 mph /  10.3 km/h 72 % 0.0 in /  0 mm
21:02 7.4 °F /  -13.7 °C 2.7 °F /  -16.3 °C 1014.4 in /  34347.6 hPa ESE 1.6 mph /  2.6 km/h 6.4 mph /  10.3 km/h 72 % 0.0 in /  0 mm
21:07 7.4 °F /  -13.7 °C 2.7 °F /  -16.3 °C 1014.4 in /  34347.6 hPa ESE 1.6 mph /  2.6 km/h 6.4 mph /  10.3 km/h 72 % 0.0 in /  0 mm
21:12 7.4 °F /  -13.7 °C 2.7 °F /  -16.3 °C 1014.4 in /  34347.6 hPa ENE 4.8 mph /  7.7 km/h 6.4 mph /  10.3 km/h 72 % 0.0 in /  0 mm
21:17 7.4 °F /  -13.7 °C 2.5 °F /  -16.4 °C 1014.4 in /  34347.6 hPa ESE 3.2 mph /  5.1 km/h 11.3 mph /  18.2 km/h 71 % 0.0 in /  0 mm
21:22 7.3 °F /  -13.7 °C 2.6 °F /  -16.3 °C 1014.4 in /  34347.6 hPa ESE 1.6 mph /  2.6 km/h 11.3 mph /  18.2 km/h 72 % 0.0 in /  0 mm
21:27 7.2 °F /  -13.8 °C 2.5 °F /  -16.4 °C 1014.4 in /  34347.6 hPa SE 3.2 mph /  5.1 km/h 11.3 mph /  18.2 km/h 72 % 0.0 in /  0 mm
21:32 7.2 °F /  -13.8 °C 2.5 °F /  -16.4 °C 1014.4 in /  34347.6 hPa East 1.6 mph /  2.6 km/h 11.3 mph /  18.2 km/h 72 % 0.0 in /  0 mm
21:37 7.2 °F /  -13.8 °C 2.5 °F /  -16.4 °C 1014.4 in /  34347.6 hPa SE 1.6 mph /  2.6 km/h 11.3 mph /  18.2 km/h 72 % 0.0 in /  0 mm
21:42 7.2 °F /  -13.8 °C 2.5 °F /  -16.4 °C 1014.4 in /  34347.6 hPa ESE 1.6 mph /  2.6 km/h 11.3 mph /  18.2 km/h 72 % 0.0 in /  0 mm
21:47 7.2 °F /  -13.8 °C 2.5 °F /  -16.4 °C 1014.4 in /  34347.6 hPa East 1.6 mph /  2.6 km/h 6.4 mph /  10.3 km/h 72 % 0.0 in /  0 mm
21:52 7.2 °F /  -13.8 °C 2.5 °F /  -16.4 °C 1014.4 in /  34347.6 hPa East 3.2 mph /  5.1 km/h 6.4 mph /  10.3 km/h 72 % 0.0 in /  0 mm
22:02 7.2 °F /  -13.8 °C 2.3 °F /  -16.5 °C 1014.4 in /  34347.6 hPa ESE 1.6 mph /  2.6 km/h 6.4 mph /  10.3 km/h 71 % 0.0 in /  0 mm
22:12 7.5 °F /  -13.6 °C 2.4 °F /  -16.4 °C 1014.4 in /  34347.6 hPa ESE 4.8 mph /  7.7 km/h 6.4 mph /  10.3 km/h 70 % 0.0 in /  0 mm
22:17 7.6 °F /  -13.6 °C 2.3 °F /  -16.5 °C 1014.4 in /  34347.6 hPa East 1.6 mph /  2.6 km/h 8.0 mph /  12.9 km/h 69 % 0.0 in /  0 mm
22:22 7.7 °F /  -13.5 °C 2.4 °F /  -16.4 °C 1014.8 in /  34361.1 hPa ESE 1.6 mph /  2.6 km/h 8.0 mph /  12.9 km/h 69 % 0.0 in /  0 mm
22:27 7.8 °F /  -13.4 °C 2.3 °F /  -16.5 °C 1014.8 in /  34361.1 hPa East 8.0 mph /  12.9 km/h 8.0 mph /  12.9 km/h 68 % 0.0 in /  0 mm
22:32 7.9 °F /  -13.4 °C 2.2 °F /  -16.6 °C 1014.8 in /  34361.1 hPa East 4.8 mph /  7.7 km/h 9.7 mph /  15.6 km/h 67 % 0.0 in /  0 mm
22:37 8.0 °F /  -13.3 °C 2.2 °F /  -16.6 °C 1014.8 in /  34361.1 hPa East 4.8 mph /  7.7 km/h 9.7 mph /  15.6 km/h 67 % 0.0 in /  0 mm
22:42 8.1 °F /  -13.3 °C 2.3 °F /  -16.5 °C 1014.8 in /  34361.1 hPa East 4.8 mph /  7.7 km/h 9.7 mph /  15.6 km/h 67 % 0.0 in /  0 mm
22:52 8.1 °F /  -13.3 °C 2.3 °F /  -16.5 °C 1014.4 in /  34347.6 hPa ESE 1.6 mph /  2.6 km/h 11.3 mph /  18.2 km/h 67 % 0.0 in /  0 mm
22:57 8.0 °F /  -13.3 °C 2.2 °F /  -16.6 °C 1014.4 in /  34347.6 hPa SE 3.2 mph /  5.1 km/h 11.3 mph /  18.2 km/h 67 % 0.0 in /  0 mm
23:02 7.9 °F /  -13.4 °C 2.4 °F /  -16.4 °C 1014.4 in /  34347.6 hPa East 3.2 mph /  5.1 km/h 9.7 mph /  15.6 km/h 68 % 0.0 in /  0 mm
23:07 7.9 °F /  -13.4 °C 2.4 °F /  -16.4 °C 1014.4 in /  34347.6 hPa SE 3.2 mph /  5.1 km/h 9.7 mph /  15.6 km/h 68 % 0.0 in /  0 mm
23:12 8.1 °F /  -13.3 °C 2.3 °F /  -16.5 °C 1014.4 in /  34347.6 hPa ESE 4.8 mph /  7.7 km/h 9.7 mph /  15.6 km/h 67 % 0.0 in /  0 mm
23:17 8.1 °F /  -13.3 °C 2.3 °F /  -16.5 °C 1014.4 in /  34347.6 hPa ESE 4.8 mph /  7.7 km/h 9.7 mph /  15.6 km/h 67 % 0.0 in /  0 mm
23:22 8.2 °F /  -13.2 °C 2.4 °F /  -16.4 °C 1014.4 in /  34347.6 hPa East 3.2 mph /  5.1 km/h 9.7 mph /  15.6 km/h 67 % 0.0 in /  0 mm
23:27 8.2 °F /  -13.2 °C 2.2 °F /  -16.6 °C 1014.8 in /  34361.1 hPa East 6.4 mph /  10.3 km/h 9.7 mph /  15.6 km/h 66 % 0.0 in /  0 mm
23:32 8.2 °F /  -13.2 °C 2.4 °F /  -16.4 °C 1014.8 in /  34361.1 hPa East 3.2 mph /  5.1 km/h 9.7 mph /  15.6 km/h 67 % 0.0 in /  0 mm
23:37 8.2 °F /  -13.2 °C 2.4 °F /  -16.4 °C 1014.8 in /  34361.1 hPa ESE 3.2 mph /  5.1 km/h 9.7 mph /  15.6 km/h 67 % 0.0 in /  0 mm
23:52 7.8 °F /  -13.4 °C 2.3 °F /  -16.5 °C 1014.4 in /  34347.6 hPa ENE 4.8 mph /  7.7 km/h 12.9 mph /  20.8 km/h 68 % 0.0 in /  0 mm
Meteo18
Compliments of Weather Underground - 4 mb

Script developed by  Jim McMurry - jmcmurry@mwt.net Adapted for the template by  Wim van der Kuil - Leuven-Template.eu

You find our weather info also at:

European Weather Network

Weather Underground

Equipment we use:

Weather-station
Davis Vue

Weather-program
Meteobridge

Weather-server
Raspberry PI 2 B+

Provider
1 and 1

Davis Vue

Meteobridge

Raspberry PI 2 B+

1 and 1